PWSweather.com
Personal Weather Stations
Station Observations
KCOBLACK1
Chalet Park, Black Hawk, CO 80422

Chalet ParkBlack Hawk, CO 80422

Lat: 39.8294, Lon: -105.48

Elevation: 9370

Station Type: Vantage Pro2

http://www.oscaranddeb.com/weather

Latest ConditionsUpdated 3:45:05 AM MST Saturday, Feb 13, 2016
Currently Today's Max Today's Min Today's Average
Temperature 42.0°F5.6°C 43.8°F6.6°C 41.3°F5.2°C 42.5°F5.8°C
Dew Point 10.4°F-12.0°C 19.4°F-7.0°C 10.1°F-12.2°C 16.3°F-8.7°C
Winds 4.0 mph S6.4 kmh S 15.0 mph SSE24.1 kmh SSE - 4.3 mph 6.9 kmh
Wind Gusts 13.0 mph20.9 kmh 24.0 mph38.6 kmh - -
Humidity 27% 39% 27% 35%
Pressure 29.93 in1013.5 mb 30.03 in1016.9 mb 29.93 in1013.5 mb -
Hour Temp Dew Point Humidity Winds Wind Gusts Pressure Precip Precip Rate Daily Precip Total
03:45 AM 42.0°F5.6°C 10.4°F-12.0°C 27% 4.0 mph S6.4 kmh S 13.0 mph20.9 kmh 29.93 in1013.5 mb 0.00 in0.0 mm 0.00 in0.0 mm 0.00 in0.0 mm
03:40 AM 41.6°F5.3°C 10.1°F-12.2°C 27% 12.0 mph SSE19.3 kmh SSE 18.0 mph29.0 kmh 29.93 in1013.5 mb 0.00 in0.0 mm 0.00 in0.0 mm 0.00 in0.0 mm
03:35 AM 41.7°F5.4°C 12.5°F-10.8°C 30% 8.0 mph SE12.9 kmh SE 13.0 mph20.9 kmh 29.94 in1013.9 mb 0.00 in0.0 mm 0.00 in0.0 mm 0.00 in0.0 mm
03:30 AM 42.3°F5.7°C 12.3°F-10.9°C 29% 1.0 mph WSW1.6 kmh WSW 24.0 mph38.6 kmh 29.95 in1014.2 mb 0.00 in0.0 mm 0.00 in0.0 mm 0.00 in0.0 mm
03:25 AM 42.4°F5.8°C 10.8°F-11.8°C 27% 4.0 mph NW6.4 kmh NW 23.0 mph37.0 kmh 29.95 in1014.2 mb 0.00 in0.0 mm 0.00 in0.0 mm 0.00 in0.0 mm
03:20 AM 42.0°F5.6°C 10.4°F-12.0°C 27% 7.0 mph S11.3 kmh S 19.0 mph30.6 kmh 29.95 in1014.2 mb 0.00 in0.0 mm 0.00 in0.0 mm 0.00 in0.0 mm
03:15 AM 41.3°F5.2°C 10.6°F-11.9°C 28% 5.0 mph S8.0 kmh S 12.0 mph19.3 kmh 29.94 in1013.9 mb 0.00 in0.0 mm 0.00 in0.0 mm 0.00 in0.0 mm
03:10 AM 41.9°F5.5°C 14.2°F-9.9°C 32% Calm Calm 11.0 mph17.7 kmh 29.95 in1014.2 mb 0.00 in0.0 mm 0.00 in0.0 mm 0.00 in0.0 mm
03:05 AM 42.1°F5.6°C 11.3°F-11.5°C 28% 1.0 mph SSE1.6 kmh SSE 17.0 mph27.4 kmh 29.95 in1014.2 mb 0.00 in0.0 mm 0.00 in0.0 mm 0.00 in0.0 mm
03:00 AM 41.7°F5.4°C 14.0°F-10.0°C 32% 15.0 mph SSE24.1 kmh SSE 14.0 mph22.5 kmh 29.95 in1014.2 mb 0.00 in0.0 mm 0.00 in0.0 mm 0.00 in0.0 mm
02:55 AM 41.9°F5.5°C 14.2°F-9.9°C 32% 2.0 mph SW3.2 kmh SW 10.0 mph16.1 kmh 29.96 in1014.6 mb 0.00 in0.0 mm 0.00 in0.0 mm 0.00 in0.0 mm
02:50 AM 42.2°F5.7°C 13.7°F-10.2°C 31% 7.0 mph S11.3 kmh S 15.0 mph24.1 kmh 29.96 in1014.6 mb 0.00 in0.0 mm 0.00 in0.0 mm 0.00 in0.0 mm
02:45 AM 41.9°F5.5°C 14.2°F-9.9°C 32% 4.0 mph S6.4 kmh S 17.0 mph27.4 kmh 29.96 in1014.6 mb 0.00 in0.0 mm 0.00 in0.0 mm 0.00 in0.0 mm
02:40 AM 41.6°F5.3°C 16.0°F-8.9°C 35% 7.0 mph SW11.3 kmh SW 11.0 mph17.7 kmh 29.98 in1015.2 mb 0.00 in0.0 mm 0.00 in0.0 mm 0.00 in0.0 mm
02:35 AM 41.8°F5.4°C 15.5°F-9.2°C 34% 4.0 mph S6.4 kmh S 12.0 mph19.3 kmh 29.96 in1014.6 mb 0.00 in0.0 mm 0.00 in0.0 mm 0.00 in0.0 mm
02:30 AM 42.3°F5.7°C 15.9°F-8.9°C 34% 4.0 mph SW6.4 kmh SW 7.0 mph11.3 kmh 29.97 in1014.9 mb 0.00 in0.0 mm 0.00 in0.0 mm 0.00 in0.0 mm
02:25 AM 42.4°F5.8°C 15.3°F-9.3°C 33% 2.0 mph SW3.2 kmh SW 12.0 mph19.3 kmh 29.97 in1014.9 mb 0.00 in0.0 mm 0.00 in0.0 mm 0.00 in0.0 mm
02:20 AM 42.2°F5.7°C 15.8°F-9.0°C 34% 1.0 mph S1.6 kmh S 10.0 mph16.1 kmh 29.98 in1015.2 mb 0.00 in0.0 mm 0.00 in0.0 mm 0.00 in0.0 mm
02:15 AM 42.0°F5.6°C 15.6°F-9.1°C 34% 3.0 mph SW4.8 kmh SW 16.0 mph25.7 kmh 29.98 in1015.2 mb 0.00 in0.0 mm 0.00 in0.0 mm 0.00 in0.0 mm
02:10 AM 42.1°F5.6°C 16.4°F-8.7°C 35% 4.0 mph S6.4 kmh S 14.0 mph22.5 kmh 29.98 in1015.2 mb 0.00 in0.0 mm 0.00 in0.0 mm 0.00 in0.0 mm
02:05 AM 42.3°F5.7°C 15.9°F-8.9°C 34% 5.0 mph S8.0 kmh S 14.0 mph22.5 kmh 29.98 in1015.2 mb 0.00 in0.0 mm 0.00 in0.0 mm 0.00 in0.0 mm
02:00 AM 42.4°F5.8°C 17.3°F-8.2°C 36% 7.0 mph S11.3 kmh S 14.0 mph22.5 kmh 29.98 in1015.2 mb 0.00 in0.0 mm 0.00 in0.0 mm 0.00 in0.0 mm
01:55 AM 42.4°F5.8°C 17.3°F-8.2°C 36% 2.0 mph SSE3.2 kmh SSE 13.0 mph20.9 kmh 29.98 in1015.2 mb 0.00 in0.0 mm 0.00 in0.0 mm 0.00 in0.0 mm
01:50 AM 42.2°F5.7°C 18.4°F-7.6°C 38% 5.0 mph NW8.0 kmh NW 16.0 mph25.7 kmh 29.99 in1015.6 mb 0.00 in0.0 mm 0.00 in0.0 mm 0.00 in0.0 mm
01:45 AM 42.0°F5.6°C 18.2°F-7.7°C 38% 6.0 mph SSW9.7 kmh SSW 19.0 mph30.6 kmh 29.99 in1015.6 mb 0.00 in0.0 mm 0.00 in0.0 mm 0.00 in0.0 mm
01:40 AM 41.9°F5.5°C 18.7°F-7.4°C 39% 5.0 mph SW8.0 kmh SW 11.0 mph17.7 kmh 29.99 in1015.6 mb 0.00 in0.0 mm 0.00 in0.0 mm 0.00 in0.0 mm
01:35 AM 42.8°F6.0°C 18.9°F-7.3°C 38% 3.0 mph S4.8 kmh S 11.0 mph17.7 kmh 29.99 in1015.6 mb 0.00 in0.0 mm 0.00 in0.0 mm 0.00 in0.0 mm
01:30 AM 42.9°F6.1°C 18.4°F-7.6°C 37% 4.0 mph SW6.4 kmh SW 15.0 mph24.1 kmh 29.99 in1015.6 mb 0.00 in0.0 mm 0.00 in0.0 mm 0.00 in0.0 mm
01:25 AM 42.9°F6.1°C 19.0°F-7.2°C 38% 4.0 mph SSW6.4 kmh SSW 20.0 mph32.2 kmh 29.99 in1015.6 mb 0.00 in0.0 mm 0.00 in0.0 mm 0.00 in0.0 mm
01:20 AM 42.9°F6.1°C 19.0°F-7.2°C 38% 11.0 mph S17.7 kmh S 15.0 mph24.1 kmh 29.99 in1015.6 mb 0.00 in0.0 mm 0.00 in0.0 mm 0.00 in0.0 mm
01:15 AM 42.7°F5.9°C 18.8°F-7.3°C 38% 3.0 mph S4.8 kmh S 23.0 mph37.0 kmh 29.99 in1015.6 mb 0.00 in0.0 mm 0.00 in0.0 mm 0.00 in0.0 mm
01:10 AM 42.6°F5.9°C 18.7°F-7.4°C 38% 2.0 mph SSW3.2 kmh SSW 10.0 mph16.1 kmh 30.00 in1015.9 mb 0.00 in0.0 mm 0.00 in0.0 mm 0.00 in0.0 mm
01:05 AM 42.7°F5.9°C 18.2°F-7.7°C 37% Calm Calm 9.0 mph14.5 kmh 30.00 in1015.9 mb 0.00 in0.0 mm 0.00 in0.0 mm 0.00 in0.0 mm
01:00 AM 42.9°F6.1°C 19.0°F-7.2°C 38% Calm Calm 4.0 mph6.4 kmh 30.01 in1016.3 mb 0.00 in0.0 mm 0.00 in0.0 mm 0.00 in0.0 mm
12:55 AM 43.0°F6.1°C 19.1°F-7.2°C 38% 3.0 mph NNW4.8 kmh NNW 9.0 mph14.5 kmh 30.01 in1016.3 mb 0.00 in0.0 mm 0.00 in0.0 mm 0.00 in0.0 mm
12:50 AM 42.8°F6.0°C 18.9°F-7.3°C 38% 4.0 mph SW6.4 kmh SW 13.0 mph20.9 kmh 30.01 in1016.3 mb 0.00 in0.0 mm 0.00 in0.0 mm 0.00 in0.0 mm
12:45 AM 42.9°F6.1°C 19.0°F-7.2°C 38% 1.0 mph WSW1.6 kmh WSW 5.0 mph8.0 kmh 30.02 in1016.6 mb 0.00 in0.0 mm 0.00 in0.0 mm 0.00 in0.0 mm
12:40 AM 42.9°F6.1°C 19.0°F-7.2°C 38% 2.0 mph WNW3.2 kmh WNW 12.0 mph19.3 kmh 30.02 in1016.6 mb 0.00 in0.0 mm 0.00 in0.0 mm 0.00 in0.0 mm
12:35 AM 43.1°F6.2°C 19.2°F-7.1°C 38% 3.0 mph SSW4.8 kmh SSW 7.0 mph11.3 kmh 30.02 in1016.6 mb 0.00 in0.0 mm 0.00 in0.0 mm 0.00 in0.0 mm
12:30 AM 43.7°F6.5°C 18.5°F-7.5°C 36% 5.0 mph S8.0 kmh S 15.0 mph24.1 kmh 30.02 in1016.6 mb 0.00 in0.0 mm 0.00 in0.0 mm 0.00 in0.0 mm
12:25 AM 43.8°F6.6°C 18.6°F-7.4°C 36% 3.0 mph SSW4.8 kmh SSW 16.0 mph25.7 kmh 30.03 in1016.9 mb 0.00 in0.0 mm 0.00 in0.0 mm 0.00 in0.0 mm
12:20 AM 43.4°F6.3°C 16.2°F-8.8°C 33% 1.0 mph WSW1.6 kmh WSW 18.0 mph29.0 kmh 30.03 in1016.9 mb 0.00 in0.0 mm 0.00 in0.0 mm 0.00 in0.0 mm
12:15 AM 43.3°F6.3°C 19.4°F-7.0°C 38% 12.0 mph N19.3 kmh N 15.0 mph24.1 kmh 30.03 in1016.9 mb 0.00 in0.0 mm 0.00 in0.0 mm 0.00 in0.0 mm
12:10 AM 43.4°F6.3°C 18.8°F-7.3°C 37% Calm Calm 12.0 mph19.3 kmh 30.03 in1016.9 mb 0.00 in0.0 mm 0.00 in0.0 mm 0.00 in0.0 mm
12:05 AM 43.6°F6.4°C 19.0°F-7.2°C 37% 7.0 mph SW11.3 kmh SW 11.0 mph17.7 kmh 30.03 in1016.9 mb 0.00 in0.0 mm 0.00 in0.0 mm 0.00 in0.0 mm
12:00 AM 43.6°F6.4°C 19.0°F-7.2°C 37% 5.0 mph SSW8.0 kmh SSW 24.0 mph38.6 kmh 30.03 in1016.9 mb 0.00 in0.0 mm 0.00 in0.0 mm 0.00 in0.0 mm